Metar z pełnej godziny Komunikat METAR ze strony awiacja.imgw.pl Metar G00 EPWR METAR EPWR 220600Z 30009KT CAVOK M02/M04 Q1029 =